Time;durP1;ratioP1;P1;durP2;ratioP2;P2;SDS_P1;SDS_P2;PMS_P1;PMS_P2;Temp;Humidity;BMP_temperature;BMP_pressure;BME280_temperature;BME280_humidity;BME280_pressure;Samples;Min_cycle;Max_cycle;Signal;HPM_P1;HPM_P2
2021/05/06 00:31:58;;;;;;;13.35;2.13;;;7.70;80.80;;;;;;5032763;28;20047;-74
2021/05/06 00:34:24;;;;;;;10.82;2.83;;;7.70;80.90;;;;;;5031332;28;20325;-75
2021/05/06 00:36:49;;;;;;;24.80;3.75;;;7.60;81.00;;;;;;5032330;28;20235;-75
2021/05/06 00:39:20;;;;;;;14.23;1.83;;;7.60;81.20;;;;;;5032405;28;20083;-74
2021/05/06 00:56:00;;;;;;;10.18;2.33;;;7.70;81.00;;;;;;5032285;28;20064;-74
2021/05/06 01:06:20;;;;;;;10.35;1.92;;;7.50;81.50;;;;;;5032046;28;20168;-75
2021/05/06 01:08:52;;;;;;;5.22;1.50;;;7.50;82.00;;;;;;5031718;28;20025;-75
2021/05/06 01:11:34;;;;;;;10.40;1.83;;;7.50;82.00;;;;;;5031880;28;20463;-74
2021/05/06 01:14:09;;;;;;;7.78;1.42;;;7.50;81.90;;;;;;5033307;28;20479;-75
2021/05/06 01:16:35;;;;;;;11.45;1.85;;;7.50;81.80;;;;;;5031590;28;20033;-75
2021/05/06 01:19:00;;;;;;;7.20;1.67;;;7.50;82.10;;;;;;5031896;28;20112;-75
2021/05/06 01:21:26;;;;;;;8.98;1.85;;;7.40;82.00;;;;;;5030681;28;20128;-74
2021/05/06 01:23:53;;;;;;;7.18;1.73;;;7.50;82.00;;;;;;5030634;28;20033;-75
2021/05/06 01:26:36;;;;;;;7.72;1.75;;;7.40;82.00;;;;;;5030729;28;20096;-75
2021/05/06 01:29:05;;;;;;;13.10;1.60;;;7.40;82.20;;;;;;5032948;28;20037;-75
2021/05/06 01:31:33;;;;;;;9.63;1.50;;;7.30;82.40;;;;;;5031605;28;20037;-74
2021/05/06 01:34:12;;;;;;;9.90;1.50;;;7.30;82.50;;;;;;5032186;28;20089;-75
2021/05/06 01:36:48;;;;;;;15.05;2.25;;;7.30;82.50;;;;;;5031063;28;20087;-75
2021/05/06 02:00:22;;;;;;;6.25;1.67;;;7.30;82.00;;;;;;5031031;28;20095;-76
2021/05/06 02:02:49;;;;;;;6.45;2.15;;;7.30;82.30;;;;;;5030743;28;20040;-74
2021/05/06 02:05:15;;;;;;;11.38;2.20;;;7.20;82.30;;;;;;5032582;28;20053;-76
2021/05/06 02:07:42;;;;;;;13.10;1.98;;;7.30;82.00;;;;;;5031473;28;20392;-76
2021/05/06 02:10:14;;;;;;;10.63;1.75;;;7.40;82.00;;;;;;5030840;28;20110;-74
2021/05/06 02:12:41;;;;;;;8.30;1.77;;;7.40;81.70;;;;;;5030898;28;20053;-76
2021/05/06 02:15:53;;;;;;;9.75;2.00;;;7.40;81.60;;;;;;5030516;28;20049;-74
2021/05/06 02:17:58;;;;;;;14.88;1.80;;;7.40;81.80;;;;;;5030000;28;20475;-75
2021/05/06 02:20:24;;;;;;;7.72;1.60;;;7.50;81.70;;;;;;5030620;28;20451;-74
2021/05/06 02:22:51;;;;;;;9.43;1.63;;;7.30;81.70;;;;;;5032299;28;20071;-74
2021/05/06 02:25:17;;;;;;;8.35;1.60;;;7.30;81.90;;;;;;5030420;28;20426;-76
2021/05/06 02:27:43;;;;;;;7.75;1.55;;;7.30;81.50;;;;;;5029940;28;20033;-75
2021/05/06 02:30:12;;;;;;;5.47;1.65;;;7.30;81.50;;;;;;5030102;28;20037;-75
2021/05/06 02:32:37;;;;;;;6.60;1.55;;;7.30;81.50;;;;;;5030258;28;20033;-74
2021/05/06 02:35:04;;;;;;;7.80;2.17;;;7.30;81.60;;;;;;5031210;28;20083;-75
2021/05/06 02:37:30;;;;;;;10.57;1.38;;;7.30;81.80;;;;;;5030019;28;20056;-74
2021/05/06 02:39:55;;;;;;;9.18;1.83;;;7.30;82.20;;;;;;5030266;28;20041;-75
2021/05/06 02:42:21;;;;;;;9.88;1.95;;;7.30;82.60;;;;;;5028716;28;20040;-75
2021/05/06 02:44:47;;;;;;;12.45;2.40;;;7.20;82.40;;;;;;5030085;28;20124;-75
2021/05/06 02:47:13;;;;;;;12.32;1.92;;;7.20;82.50;;;;;;5031814;28;20029;-75
2021/05/06 02:49:44;;;;;;;13.23;1.58;;;7.30;82.40;;;;;;5030023;28;20042;-75
2021/05/06 02:52:16;;;;;;;8.68;1.75;;;7.20;82.60;;;;;;5030030;28;20101;-75
2021/05/06 02:54:50;;;;;;;7.97;1.83;;;7.10;82.40;;;;;;5030023;28;20041;-75
2021/05/06 03:02:49;;;;;;;8.63;1.65;;;7.20;82.80;;;;;;5029770;28;20040;-75
2021/05/06 03:05:15;;;;;;;12.70;2.00;;;7.20;83.10;;;;;;5031237;28;20109;-75
2021/05/06 03:07:44;;;;;;;9.48;1.98;;;7.10;83.00;;;;;;5029850;28;20026;-75
2021/05/06 03:13:05;;;;;;;7.85;1.65;;;7.00;83.20;;;;;;5029506;28;20041;-75
2021/05/06 03:23:43;;;;;;;6.13;1.58;;;6.90;83.50;;;;;;5029513;28;20442;-75
2021/05/06 03:26:11;;;;;;;7.05;1.67;;;6.90;83.60;;;;;;5031278;28;20025;-76
2021/05/06 03:28:41;;;;;;;12.00;2.20;;;6.90;83.50;;;;;;5029292;28;20127;-75
2021/05/06 03:42:03;;;;;;;5.80;1.95;;;7.10;83.40;;;;;;5028953;28;20040;-74
2021/05/06 03:47:16;;;;;;;4.15;1.55;;;7.10;83.20;;;;;;5029931;28;20033;-77
2021/05/06 04:11:58;;;;;;;;;;;;;;;;;;;;;
2021/05/06 04:30:08;;;;;;;8.98;2.85;;;7.60;83.90;;;;;;5028526;28;20042;-74
2021/05/06 04:38:02;;;;;;;7.95;2.65;;;7.60;83.40;;;;;;5030170;28;20037;-76
2021/05/06 04:54:42;;;;;;;10.43;4.28;;;7.80;84.80;;;;;;5028779;28;20129;-74
2021/05/06 04:56:51;;;;;;;10.90;5.00;;;7.70;86.30;;;;;;5031189;28;20033;-77
2021/05/06 05:04:46;;;;;;;18.98;7.80;;;7.60;91.00;;;;;;5032119;28;20072;-75
2021/05/06 05:07:25;;;;;;;17.55;6.93;;;7.70;91.40;;;;;;5031916;28;20037;-75
2021/05/06 05:18:28;;;;;;;15.93;7.97;;;7.30;93.60;;;;;;5031759;28;20044;-75
2021/05/06 05:23:48;;;;;;;17.27;8.05;;;7.50;94.20;;;;;;5031719;28;20133;-75
2021/05/06 05:26:15;;;;;;;20.38;8.48;;;7.50;94.30;;;;;;5033276;28;20565;-76
2021/05/06 05:28:41;;;;;;;17.27;8.73;;;7.60;94.80;;;;;;5031579;28;20033;-75
2021/05/06 05:31:07;;;;;;;13.75;8.45;;;7.70;94.90;;;;;;5031342;28;20030;-75
2021/05/06 05:33:38;;;;;;;22.33;8.90;;;7.60;95.00;;;;;;5031362;28;20033;-76
2021/05/06 05:36:15;;;;;;;16.40;9.20;;;7.70;95.00;;;;;;5031175;28;20048;-75
2021/05/06 05:55:13;;;;;;;17.70;9.63;;;7.10;95.80;;;;;;5046252;28;20029;-74
2021/05/06 05:57:41;;;;;;;19.10;10.88;;;7.10;96.00;;;;;;5029847;28;20037;-75
2021/05/06 06:00:07;;;;;;;18.85;10.25;;;7.40;96.30;;;;;;5030834;28;20376;-74
2021/05/06 06:02:35;;;;;;;19.30;10.30;;;7.20;96.00;;;;;;5030742;28;20022;-75
2021/05/06 06:05:01;;;;;;;15.88;9.65;;;7.10;95.90;;;;;;5032349;28;20045;-74
2021/05/06 06:07:26;;;;;;;20.58;11.00;;;7.00;96.20;;;;;;5030428;28;20057;-75
2021/05/06 06:09:52;;;;;;;16.88;10.77;;;7.00;96.20;;;;;;5028276;28;20669;-75
2021/05/06 06:12:18;;;;;;;18.15;10.68;;;7.00;96.30;;;;;;5030106;28;20057;-75
2021/05/06 06:17:09;;;;;;;20.30;10.93;;;7.20;96.20;;;;;;5031683;28;20048;-75
2021/05/06 06:19:36;;;;;;;17.38;12.15;;;7.30;96.30;;;;;;5030168;28;20083;-75
2021/05/06 06:22:07;;;;;;;16.52;10.63;;;7.20;96.30;;;;;;5029923;28;20041;-75
2021/05/06 06:24:32;;;;;;;13.52;9.48;;;7.20;96.40;;;;;;5028680;28;20045;-75
2021/05/06 06:26:58;;;;;;;16.63;10.18;;;7.40;96.20;;;;;;5030062;28;20498;-75
2021/05/06 06:29:30;;;;;;;18.77;10.68;;;7.40;96.30;;;;;;5028802;28;20048;-76
2021/05/06 06:31:56;;;;;;;15.30;9.60;;;7.50;96.10;;;;;;5030624;28;20017;-76
2021/05/06 06:34:22;;;;;;;16.35;9.70;;;7.40;95.90;;;;;;5029910;28;20474;-76
2021/05/06 06:36:48;;;;;;;15.85;10.02;;;7.40;96.30;;;;;;5028891;28;20052;-75
2021/05/06 06:39:15;;;;;;;19.38;11.07;;;7.40;96.50;;;;;;5030041;28;20018;-75
2021/05/06 06:41:41;;;;;;;16.27;9.80;;;7.40;96.50;;;;;;5029825;28;20108;-74
2021/05/06 06:44:07;;;;;;;16.73;8.85;;;7.30;96.20;;;;;;5031407;28;20382;-74
2021/05/06 06:46:33;;;;;;;12.90;9.13;;;7.30;96.10;;;;;;5029001;28;20034;-75
2021/05/06 06:49:00;;;;;;;13.23;8.32;;;7.20;96.40;;;;;;5029595;28;20328;-76
2021/05/06 06:51:26;;;;;;;12.00;7.67;;;7.20;96.50;;;;;;5029666;28;20317;-75
2021/05/06 06:53:51;;;;;;;13.80;8.82;;;7.20;96.30;;;;;;5028689;28;20048;-76
2021/05/06 06:56:17;;;;;;;12.50;7.97;;;7.40;96.30;;;;;;5029298;28;20033;-75
2021/05/06 06:58:48;;;;;;;14.15;8.25;;;7.50;96.30;;;;;;5031316;28;20021;-76
2021/05/06 07:01:14;;;;;;;15.15;8.95;;;7.40;96.00;;;;;;5028511;28;20119;-74
2021/05/06 07:03:39;;;;;;;10.95;8.32;;;7.50;96.10;;;;;;5029465;28;20080;-75
2021/05/06 07:06:05;;;;;;;15.60;8.27;;;7.40;95.80;;;;;;5029589;28;20061;-75
2021/05/06 07:08:36;;;;;;;14.95;8.60;;;7.50;96.00;;;;;;5029611;28;20021;-75
2021/05/06 07:11:04;;;;;;;11.45;9.05;;;7.60;95.80;;;;;;5031132;28;20041;-75
2021/05/06 07:13:31;;;;;;;13.27;8.68;;;7.60;95.60;;;;;;5029511;28;20064;-76
2021/05/06 07:15:58;;;;;;;12.65;7.88;;;7.70;95.80;;;;;;5029402;28;20039;-74
2021/05/06 07:18:25;;;;;;;11.40;7.88;;;7.70;95.50;;;;;;5029508;28;20053;-75
2021/05/06 07:20:51;;;;;;;27.13;9.35;;;7.80;95.90;;;;;;5029267;28;20039;-75
2021/05/06 07:23:19;;;;;;;14.95;8.55;;;7.80;96.00;;;;;;5028597;28;20029;-73
2021/05/06 07:25:46;;;;;;;12.80;7.57;;;7.90;95.80;;;;;;5031567;28;20017;-75
2021/05/06 07:28:22;;;;;;;11.90;7.90;;;7.90;95.40;;;;;;5029338;28;20111;-74
2021/05/06 07:30:49;;;;;;;9.65;6.63;;;7.90;95.50;;;;;;5029047;28;20029;-75
2021/05/06 07:33:16;;;;;;;18.40;6.90;;;7.90;95.20;;;;;;5029340;28;20511;-77
2021/05/06 07:35:42;;;;;;;10.73;7.10;;;7.90;95.30;;;;;;5028682;28;20035;-75
2021/05/06 07:38:10;;;;;;;12.90;6.47;;;8.00;95.20;;;;;;5031137;28;20108;-76
2021/05/06 07:40:37;;;;;;;12.50;7.25;;;7.90;95.10;;;;;;5028151;28;20128;-76
2021/05/06 07:43:04;;;;;;;8.77;5.90;;;8.00;95.10;;;;;;5029228;28;20128;-75
2021/05/06 07:45:32;;;;;;;8.02;6.10;;;7.90;95.20;;;;;;5028566;28;20124;-75
2021/05/06 07:47:59;;;;;;;13.25;6.72;;;7.70;95.60;;;;;;5029066;28;20074;-74
2021/05/06 07:50:25;;;;;;;9.90;6.50;;;7.70;95.40;;;;;;5028967;28;20099;-74
2021/05/06 07:52:54;;;;;;;10.75;6.15;;;7.80;95.30;;;;;;5030246;28;20022;-75
2021/05/06 07:55:20;;;;;;;9.13;6.25;;;7.90;95.40;;;;;;5027662;28;20517;-76
2021/05/06 07:57:46;;;;;;;8.30;6.18;;;8.00;95.40;;;;;;5028352;28;20037;-75
2021/05/06 08:00:17;;;;;;;8.00;5.47;;;8.20;95.30;;;;;;5028824;28;20048;-75
2021/05/06 08:02:43;;;;;;;11.13;7.53;;;8.30;94.90;;;;;;5028620;28;20625;-75
2021/05/06 08:05:10;;;;;;;6.13;5.00;;;8.30;95.00;;;;;;5030251;28;20033;-76
2021/05/06 08:07:36;;;;;;;11.95;6.63;;;8.30;94.70;;;;;;5028683;28;20060;-76
2021/05/06 08:10:02;;;;;;;10.25;6.35;;;8.50;94.50;;;;;;5028419;28;20038;-74
2021/05/06 08:12:27;;;;;;;8.88;5.47;;;9.10;95.00;;;;;;5027524;28;20375;-75
2021/05/06 08:14:54;;;;;;;6.38;4.50;;;10.40;94.10;;;;;;5027747;28;20159;-74
2021/05/06 08:17:20;;;;;;;4.15;3.75;;;11.70;92.10;;;;;;5028788;28;20036;-75
2021/05/06 08:19:47;;;;;;;4.95;3.55;;;12.70;90.00;;;;;;5029983;28;20096;-73
2021/05/06 08:22:14;;;;;;;4.28;3.25;;;14.10;87.50;;;;;;5028689;28;20061;-76
2021/05/06 08:24:39;;;;;;;2.65;2.45;;;14.70;83.30;;;;;;5028492;28;20042;-75
2021/05/06 08:27:05;;;;;;;3.25;2.95;;;15.30;80.60;;;;;;5028391;28;20033;-76
2021/05/06 08:29:31;;;;;;;3.20;2.90;;;16.10;78.00;;;;;;5027898;28;20042;-73
2021/05/06 08:31:57;;;;;;;3.60;2.90;;;17.10;75.50;;;;;;5030264;28;20021;-74
2021/05/06 08:34:22;;;;;;;2.80;2.53;;;18.10;70.70;;;;;;5030248;28;20056;-75
2021/05/06 08:36:48;;;;;;;4.80;2.53;;;19.30;69.80;;;;;;5032227;28;20050;-74
2021/05/06 08:39:14;;;;;;;2.55;2.35;;;19.80;62.20;;;;;;5031903;28;20052;-75
2021/05/06 08:41:41;;;;;;;5.10;3.35;;;20.00;59.50;;;;;;5032270;28;20052;-75
2021/05/06 08:44:09;;;;;;;3.63;2.65;;;19.70;57.30;;;;;;5033665;28;20028;-75
2021/05/06 08:46:40;;;;;;;3.45;2.60;;;20.50;59.10;;;;;;5032210;28;20472;-75
2021/05/06 08:49:10;;;;;;;5.22;3.03;;;20.60;56.10;;;;;;5031910;28;20056;-74
2021/05/06 08:51:36;;;;;;;3.45;2.85;;;21.00;54.40;;;;;;5032101;28;20034;-74
2021/05/06 08:54:02;;;;;;;6.15;2.38;;;21.80;53.40;;;;;;5031937;28;20037;-73
2021/05/06 08:56:28;;;;;;;3.08;2.65;;;21.80;51.10;;;;;;5031478;28;20026;-75
2021/05/06 08:58:55;;;;;;;4.90;2.72;;;21.80;50.50;;;;;;5033353;28;20610;-74
2021/05/06 09:01:20;;;;;;;4.78;3.03;;;21.80;49.90;;;;;;5031650;28;20116;-75
2021/05/06 09:03:46;;;;;;;6.68;2.70;;;20.40;50.80;;;;;;5031683;28;20117;-74
2021/05/06 09:06:18;;;;;;;6.47;2.83;;;20.40;50.50;;;;;;5031729;28;20072;-74
2021/05/06 09:08:53;;;;;;;5.22;2.92;;;19.20;49.40;;;;;;5031704;28;20119;-74
2021/05/06 09:11:37;;;;;;;7.90;2.72;;;17.70;50.90;;;;;;5030582;28;20064;-73
2021/05/06 09:14:10;;;;;;;6.95;3.17;;;17.60;53.30;;;;;;5031995;28;20029;-74
2021/05/06 09:16:41;;;;;;;6.70;3.20;;;17.90;52.70;;;;;;5031020;28;20084;-75
2021/05/06 09:19:14;;;;;;;5.70;3.13;;;19.00;52.60;;;;;;5031427;28;20034;-74
2021/05/06 09:21:43;;;;;;;6.53;3.28;;;19.30;50.90;;;;;;5031661;28;20516;-74
2021/05/06 09:24:19;;;;;;;6.13;2.65;;;18.70;50.60;;;;;;5030046;28;20030;-73
2021/05/06 09:26:45;;;;;;;3.45;2.58;;;19.40;49.50;;;;;;5031610;28;20057;-72
2021/05/06 09:29:12;;;;;;;5.22;2.47;;;18.60;48.50;;;;;;5031779;28;20073;-74
2021/05/06 09:31:42;;;;;;;7.60;3.28;;;19.20;48.60;;;;;;5030006;28;20029;-75
2021/05/06 09:34:09;;;;;;;6.60;3.13;;;19.70;49.10;;;;;;5031125;28;20044;-73
2021/05/06 09:36:36;;;;;;;6.05;2.90;;;19.40;47.30;;;;;;5030973;28;20482;-73
2021/05/06 09:39:03;;;;;;;8.27;2.60;;;19.40;46.90;;;;;;5030965;28;20033;-74
2021/05/06 09:41:31;;;;;;;8.60;3.20;;;18.80;47.70;;;;;;5031155;28;20075;-74
2021/05/06 09:44:16;;;;;;;8.65;3.15;;;18.50;48.40;;;;;;5032734;28;20036;-74
2021/05/06 09:46:43;;;;;;;5.00;2.85;;;17.00;49.40;;;;;;5029002;28;20336;-74
2021/05/06 09:49:11;;;;;;;6.25;3.20;;;16.90;49.70;;;;;;5031176;28;20077;-73
2021/05/06 09:51:41;;;;;;;6.95;3.33;;;16.30;51.30;;;;;;5030994;28;20377;-73
2021/05/06 09:54:09;;;;;;;4.80;2.83;;;16.30;51.10;;;;;;5031094;28;20091;-75
2021/05/06 09:56:36;;;;;;;8.82;3.35;;;16.30;50.90;;;;;;5030960;28;20057;-74
2021/05/06 09:59:02;;;;;;;10.80;3.22;;;15.70;51.30;;;;;;5032354;28;20025;-74
2021/05/06 10:01:39;;;;;;;7.72;3.58;;;16.10;52.20;;;;;;5030654;28;20418;-75
2021/05/06 10:04:26;;;;;;;11.35;4.32;;;15.90;52.20;;;;;;5029716;28;20057;-75
2021/05/06 10:07:16;;;;;;;8.52;3.78;;;15.90;51.80;;;;;;5030607;28;20044;-74
2021/05/06 10:09:58;;;;;;;7.45;3.08;;;16.00;51.20;;;;;;5030597;28;20059;-74
2021/05/06 10:12:25;;;;;;;7.90;3.20;;;15.80;50.90;;;;;;5030390;28;20498;-74
2021/05/06 10:14:51;;;;;;;4.18;2.30;;;16.00;50.70;;;;;;5030147;28;20116;-75
2021/05/06 10:17:19;;;;;;;7.78;2.50;;;15.70;50.60;;;;;;5030217;28;20104;-72
2021/05/06 10:19:44;;;;;;;10.33;3.10;;;15.80;49.70;;;;;;5031874;28;20018;-74
2021/05/06 10:22:11;;;;;;;7.93;2.90;;;15.10;50.00;;;;;;5029930;28;20045;-75
2021/05/06 10:24:42;;;;;;;5.97;2.75;;;15.40;50.60;;;;;;5028722;28;20034;-75
2021/05/06 10:27:13;;;;;;;8.68;3.38;;;15.40;50.90;;;;;;5030463;28;20033;-74
2021/05/06 10:29:39;;;;;;;5.13;2.80;;;14.90;51.60;;;;;;5029935;28;20038;-74
2021/05/06 10:32:10;;;;;;;4.28;2.72;;;15.20;51.80;;;;;;5031485;28;20029;-74
2021/05/06 10:34:37;;;;;;;7.13;2.67;;;15.00;50.70;;;;;;5029897;28;20034;-75
2021/05/06 10:37:03;;;;;;;4.28;2.58;;;15.30;50.80;;;;;;5028636;28;20104;-75
2021/05/06 10:39:40;;;;;;;5.10;2.65;;;15.00;49.90;;;;;;5029340;28;20107;-76
2021/05/06 10:42:27;;;;;;;3.55;2.42;;;14.70;49.80;;;;;;5029766;28;20064;-74
2021/05/06 10:45:03;;;;;;;5.00;2.00;;;15.10;49.80;;;;;;5029869;28;20037;-74
2021/05/06 10:47:38;;;;;;;6.05;2.17;;;15.30;49.20;;;;;;5028665;28;20026;-73
2021/05/06 10:50:10;;;;;;;8.45;2.50;;;15.40;48.10;;;;;;5031306;28;20401;-74
2021/05/06 10:52:38;;;;;;;4.95;2.53;;;15.00;48.30;;;;;;5029722;28;20116;-78
2021/05/06 10:55:04;;;;;;;4.47;1.88;;;15.40;48.90;;;;;;5028874;28;20414;-75
2021/05/06 10:57:32;;;;;;;5.43;2.03;;;15.10;48.10;;;;;;5029096;28;20199;-75
2021/05/06 10:59:58;;;;;;;5.03;2.28;;;14.80;48.80;;;;;;5029173;28;20041;-74
2021/05/06 11:02:39;;;;;;;5.38;2.35;;;14.80;49.60;;;;;;5029454;28;20032;-75
2021/05/06 11:05:14;;;;;;;8.48;2.22;;;14.90;49.60;;;;;;5030880;28;20061;-75
2021/05/06 11:07:40;;;;;;;5.78;1.88;;;14.70;49.40;;;;;;5029282;28;20045;-75
2021/05/06 11:10:07;;;;;;;9.23;2.35;;;15.00;49.20;;;;;;5029310;28;20493;-74
2021/05/06 11:12:37;;;;;;;5.95;2.05;;;14.90;48.20;;;;;;5029037;28;20038;-75
2021/05/06 11:15:04;;;;;;;5.65;2.10;;;15.10;49.00;;;;;;5029138;28;20032;-75
2021/05/06 11:17:32;;;;;;;4.57;2.10;;;15.20;48.40;;;;;;5028781;28;20057;-76
2021/05/06 11:20:24;;;;;;;4.55;1.88;;;14.90;48.40;;;;;;5030806;28;20026;-76
2021/05/06 11:22:54;;;;;;;3.88;1.80;;;14.70;47.50;;;;;;5029151;28;20352;-76
2021/05/06 11:25:33;;;;;;;4.82;2.17;;;14.60;47.10;;;;;;5029199;28;20352;-74
2021/05/06 11:28:04;;;;;;;5.15;2.05;;;14.90;48.30;;;;;;5028948;28;20055;-74
2021/05/06 11:30:45;;;;;;;7.75;2.85;;;14.80;47.60;;;;;;5029133;28;20116;-75
2021/05/06 11:33:20;;;;;;;4.05;1.80;;;15.00;47.50;;;;;;5029013;28;20037;-75
2021/05/06 11:36:06;;;;;;;4.47;1.85;;;15.10;47.60;;;;;;5028803;28;20375;-74
2021/05/06 11:38:38;;;;;;;2.55;1.70;;;15.20;47.10;;;;;;5028605;28;20025;-75
2021/05/06 11:41:14;;;;;;;6.35;2.35;;;15.30;47.90;;;;;;5030488;28;20052;-75
2021/05/06 11:43:51;;;;;;;7.65;2.08;;;15.40;47.70;;;;;;5028865;28;20057;-75
2021/05/06 11:46:21;;;;;;;7.50;2.92;;;15.40;47.30;;;;;;5028703;28;20042;-75
2021/05/06 11:48:51;;;;;;;5.05;2.15;;;14.80;47.00;;;;;;5027781;28;20065;-74
2021/05/06 11:51:33;;;;;;;8.02;3.15;;;14.90;47.60;;;;;;5028691;28;20156;-76
2021/05/06 11:54:17;;;;;;;3.88;2.40;;;14.50;47.60;;;;;;5028748;28;20401;-75
2021/05/06 11:56:57;;;;;;;7.03;2.40;;;14.70;48.20;;;;;;5027578;28;20045;-76
2021/05/06 11:59:25;;;;;;;4.20;1.90;;;14.70;48.40;;;;;;5028817;28;20033;-76
2021/05/06 12:01:51;;;;;;;;;;;14.80;48.00;;;;;;5030797;28;20040;-75
2021/05/06 12:04:26;;;;;;;4.40;1.60;;;15.00;47.80;;;;;;5028700;28;19913;-75
2021/05/06 12:06:53;;;;;;;2.67;1.80;;;15.00;47.20;;;;;;5029077;28;20029;-75
2021/05/06 12:09:30;;;;;;;5.88;2.33;;;14.80;47.10;;;;;;5030847;28;20070;-76
2021/05/06 12:11:56;;;;;;;5.15;2.13;;;14.60;47.70;;;;;;5032833;28;20105;-74
2021/05/06 12:14:29;;;;;;;6.03;1.95;;;14.50;47.50;;;;;;5032420;28;20053;-74
2021/05/06 12:16:54;;;;;;;5.53;2.47;;;14.30;47.70;;;;;;5034185;28;20040;-74
2021/05/06 12:19:20;;;;;;;6.00;2.50;;;14.60;47.90;;;;;;5032616;28;20124;-75
2021/05/06 12:21:48;;;;;;;5.07;1.92;;;14.70;48.00;;;;;;5032304;28;20638;-75
2021/05/06 12:24:26;;;;;;;5.10;2.13;;;14.70;48.00;;;;;;5033304;28;20442;-77
2021/05/06 12:26:52;;;;;;;4.63;2.38;;;14.30;47.10;;;;;;5032926;28;20459;-76
2021/05/06 12:29:20;;;;;;;3.15;2.00;;;14.20;48.10;;;;;;5032291;28;20115;-76
2021/05/06 12:31:47;;;;;;;9.15;2.35;;;14.00;48.70;;;;;;5034093;28;20013;-75
2021/05/06 12:34:18;;;;;;;4.40;2.10;;;14.10;49.20;;;;;;5032075;28;20057;-75
2021/05/06 12:36:55;;;;;;;7.50;2.90;;;14.10;49.70;;;;;;5031987;28;20382;-74
2021/05/06 12:39:22;;;;;;;6.32;2.38;;;13.80;50.40;;;;;;5032005;28;20458;-75
2021/05/06 12:41:50;;;;;;;6.75;3.22;;;14.10;50.70;;;;;;5032080;28;20477;-77
2021/05/06 12:44:34;;;;;;;5.00;2.67;;;13.90;51.10;;;;;;5032657;28;20025;-76
2021/05/06 12:47:17;;;;;;;8.45;2.85;;;14.00;52.10;;;;;;5032344;28;20041;-74
2021/05/06 12:49:44;;;;;;;6.20;2.55;;;14.30;52.10;;;;;;5031202;28;20083;-75
2021/05/06 12:52:50;;;;;;;18.00;2.80;;;14.30;52.00;;;;;;5031776;28;20131;-76
2021/05/06 12:55:23;;;;;;;2.08;1.58;;;14.50;50.80;;;;;;5029125;28;20167;-75
2021/05/06 12:58:13;;;;;;;4.53;1.80;;;14.50;49.70;;;;;;5028951;28;20490;-75
2021/05/06 13:00:41;;;;;;;5.72;2.00;;;14.60;48.90;;;;;;5031023;28;20053;-76
2021/05/06 13:03:10;;;;;;;4.13;1.80;;;14.10;48.20;;;;;;5031770;28;20107;-75
2021/05/06 13:05:37;;;;;;;6.97;1.95;;;14.30;48.30;;;;;;5031557;28;20033;-74
2021/05/06 13:08:04;;;;;;;7.00;2.13;;;14.40;46.90;;;;;;5033141;28;20104;-74
2021/05/06 13:10:39;;;;;;;3.47;1.75;;;14.50;46.70;;;;;;5030368;28;20038;-74
2021/05/06 13:13:06;;;;;;;7.13;2.10;;;14.40;47.10;;;;;;5031226;28;20041;-74
2021/05/06 13:15:50;;;;;;;3.45;1.70;;;14.20;47.50;;;;;;5031332;28;20492;-74
2021/05/06 13:18:17;;;;;;;3.00;1.67;;;14.30;46.50;;;;;;5030154;28;20331;-74
2021/05/06 13:20:45;;;;;;;3.28;1.50;;;14.30;45.90;;;;;;5031086;28;20108;-75
2021/05/06 13:23:15;;;;;;;2.85;1.88;;;14.20;45.30;;;;;;5032686;28;20455;-74
2021/05/06 13:25:49;;;;;;;5.20;2.22;;;14.30;45.80;;;;;;5031491;28;20045;-74
2021/05/06 13:28:18;;;;;;;3.67;1.80;;;14.30;46.40;;;;;;5031099;28;20044;-76
2021/05/06 13:30:46;;;;;;;4.53;1.80;;;14.40;46.30;;;;;;5031063;28;20045;-74
2021/05/06 13:33:18;;;;;;;;;;;14.30;45.80;;;;;;5031663;28;20033;-74
2021/05/06 13:36:17;;;;;;;3.67;1.95;;;14.40;46.60;;;;;;5030944;28;20004;-72
2021/05/06 13:38:54;;;;;;;4.03;1.85;;;14.40;47.40;;;;;;5029275;28;20440;-74
2021/05/06 13:41:22;;;;;;;8.63;3.40;;;14.50;47.60;;;;;;5030920;28;20044;-74
2021/05/06 13:43:48;;;;;;;4.97;2.20;;;14.70;47.90;;;;;;5032765;28;20232;-76
2021/05/06 13:46:15;;;;;;;4.38;1.70;;;14.70;47.00;;;;;;5029805;28;20108;-74
2021/05/06 13:48:41;;;;;;;4.20;1.83;;;14.50;45.70;;;;;;5029678;28;20030;-75
2021/05/06 13:51:09;;;;;;;4.85;2.00;;;14.10;45.20;;;;;;5029290;28;20028;-76
2021/05/06 13:53:38;;;;;;;4.07;1.90;;;14.10;45.60;;;;;;5029926;28;20475;-75
2021/05/06 13:56:07;;;;;;;3.15;1.90;;;14.30;45.90;;;;;;5031095;28;20025;-74
2021/05/06 13:58:34;;;;;;;4.30;1.92;;;14.40;46.10;;;;;;5030503;28;20034;-74
2021/05/06 14:01:01;;;;;;;2.05;1.50;;;14.50;45.60;;;;;;5028985;28;20466;-74
2021/05/06 14:03:27;;;;;;;4.53;1.42;;;14.30;44.80;;;;;;5030465;28;20084;-75
2021/05/06 14:05:53;;;;;;;3.55;1.60;;;14.30;45.70;;;;;;5030428;28;20142;-77
2021/05/06 14:08:19;;;;;;;3.33;1.70;;;14.50;45.70;;;;;;5030859;28;20025;-76
2021/05/06 14:10:46;;;;;;;6.70;1.90;;;14.60;45.50;;;;;;5032060;28;20507;-75
2021/05/06 14:13:14;;;;;;;2.70;1.42;;;14.60;45.90;;;;;;5030320;28;20467;-74
2021/05/06 14:15:40;;;;;;;4.30;2.10;;;14.40;45.80;;;;;;5030169;28;20116;-75
2021/05/06 14:18:05;;;;;;;3.60;1.88;;;14.50;46.30;;;;;;5030673;28;20061;-76
2021/05/06 14:20:31;;;;;;;3.95;1.80;;;14.60;46.10;;;;;;5028787;28;20034;-74
2021/05/06 14:22:56;;;;;;;3.08;1.80;;;14.60;46.40;;;;;;5031817;28;20424;-76
2021/05/06 14:25:22;;;;;;;4.70;2.10;;;14.70;46.30;;;;;;5030492;28;20060;-75
2021/05/06 14:27:48;;;;;;;4.15;2.33;;;14.80;46.90;;;;;;5029969;28;20041;-75
2021/05/06 14:30:14;;;;;;;3.17;1.58;;;14.90;46.90;;;;;;5029568;28;20057;-75
2021/05/06 14:32:40;;;;;;;4.28;1.50;;;14.90;46.30;;;;;;5028702;28;20095;-74
2021/05/06 14:35:06;;;;;;;2.70;1.70;;;14.70;44.50;;;;;;5031585;28;20041;-75
2021/05/06 14:37:32;;;;;;;5.25;2.00;;;14.60;44.30;;;;;;5029605;28;20463;-74
2021/05/06 14:39:57;;;;;;;4.40;1.88;;;14.40;44.70;;;;;;5029711;28;20061;-75
2021/05/06 14:42:24;;;;;;;2.47;1.83;;;14.70;45.60;;;;;;5029870;28;20057;-74
2021/05/06 14:44:50;;;;;;;4.80;1.92;;;14.70;45.50;;;;;;5028586;28;20086;-75
2021/05/06 14:47:16;;;;;;;2.60;1.80;;;14.70;45.40;;;;;;5031370;28;20025;-76
2021/05/06 14:49:42;;;;;;;3.85;2.13;;;14.70;45.20;;;;;;5030080;28;20387;-75
2021/05/06 14:52:08;;;;;;;3.28;1.80;;;14.60;45.10;;;;;;5029846;28;20387;-75
2021/05/06 14:54:34;;;;;;;3.05;1.63;;;14.50;45.30;;;;;;5029436;28;20045;-75
2021/05/06 14:56:59;;;;;;;4.25;1.90;;;14.60;45.90;;;;;;5028617;28;20038;-76
2021/05/06 14:59:25;;;;;;;4.18;1.67;;;14.50;45.70;;;;;;5029165;28;20063;-76
2021/05/06 15:01:52;;;;;;;4.32;1.73;;;14.50;45.10;;;;;;5031285;28;20343;-77
2021/05/06 15:04:17;;;;;;;2.35;1.50;;;14.40;44.60;;;;;;5028683;28;20124;-75
2021/05/06 15:06:43;;;;;;;3.92;1.90;;;14.40;43.70;;;;;;5029589;28;20121;-75
2021/05/06 15:09:09;;;;;;;2.72;1.60;;;14.30;43.90;;;;;;5029544;28;20155;-74
2021/05/06 15:11:34;;;;;;;5.38;2.17;;;14.40;44.30;;;;;;5029050;28;20025;-76
2021/05/06 15:14:02;;;;;;;2.80;1.90;;;14.40;43.90;;;;;;5030228;28;20029;-77
2021/05/06 15:16:28;;;;;;;3.10;1.75;;;14.30;43.40;;;;;;5029170;28;20455;-77
2021/05/06 15:18:54;;;;;;;3.15;1.60;;;14.40;43.90;;;;;;5029318;28;20029;-75
2021/05/06 15:21:19;;;;;;;4.05;1.98;;;14.40;43.60;;;;;;5028219;28;20140;-75
2021/05/06 15:23:45;;;;;;;2.92;1.25;;;14.40;44.10;;;;;;5029466;28;20041;-75
2021/05/06 15:26:11;;;;;;;2.85;1.90;;;14.50;44.30;;;;;;5029821;28;20458;-76
2021/05/06 15:28:36;;;;;;;4.78;3.03;;;14.50;44.20;;;;;;5028655;28;20149;-74
2021/05/06 15:31:02;;;;;;;3.67;1.77;;;14.40;44.00;;;;;;5029073;28;20045;-75
2021/05/06 15:33:28;;;;;;;3.60;1.80;;;14.30;43.90;;;;;;5029192;28;20033;-74
2021/05/06 15:35:53;;;;;;;2.83;1.85;;;14.40;44.20;;;;;;5029151;28;20045;-76
2021/05/06 15:38:20;;;;;;;5.13;1.30;;;14.30;44.10;;;;;;5028092;28;20041;-76
2021/05/06 15:40:50;;;;;;;7.30;4.55;;;14.30;44.30;;;;;;5030415;28;20021;-74
2021/05/06 15:43:16;;;;;;;4.95;2.05;;;14.40;44.30;;;;;;5028250;28;20033;-74
2021/05/06 15:45:42;;;;;;;2.75;1.48;;;14.40;43.20;;;;;;5027914;28;20034;-76
2021/05/06 15:48:13;;;;;;;1.98;1.52;;;14.50;42.90;;;;;;5028561;28;20029;-77
2021/05/06 15:50:39;;;;;;;2.50;1.52;;;14.30;42.20;;;;;;5029402;28;20416;-75
2021/05/06 15:53:05;;;;;;;3.67;1.77;;;14.30;42.50;;;;;;5029400;28;20021;-75
2021/05/06 15:55:33;;;;;;;2.60;1.65;;;14.20;42.30;;;;;;5028674;28;20029;-76
2021/05/06 15:58:01;;;;;;;5.03;1.90;;;14.00;42.10;;;;;;5028470;28;20530;-76
2021/05/06 16:00:27;;;;;;;3.10;1.55;;;14.00;42.40;;;;;;5028678;28;20033;-75
2021/05/06 16:02:58;;;;;;;3.05;1.70;;;13.90;43.10;;;;;;5028315;28;20091;-75
2021/05/06 16:05:27;;;;;;;6.00;2.05;;;14.00;43.60;;;;;;5027668;28;20036;-74
2021/05/06 16:07:54;;;;;;;3.75;1.58;;;14.20;43.50;;;;;;5030970;28;20065;-75
2021/05/06 16:10:20;;;;;;;7.85;2.00;;;14.30;43.50;;;;;;5028888;28;20095;-75
2021/05/06 16:12:46;;;;;;;4.35;2.15;;;14.20;43.60;;;;;;5028971;28;20029;-75
2021/05/06 16:15:13;;;;;;;3.53;1.98;;;14.30;43.80;;;;;;5028500;28;20048;-76
2021/05/06 16:17:38;;;;;;;2.55;1.75;;;14.30;44.00;;;;;;5027262;28;20093;-77